Time;durP1;ratioP1;P1;durP2;ratioP2;P2;SDS_P1;SDS_P2;PMS_P1;PMS_P2;Temp;Humidity;BMP_temperature;BMP_pressure;BME280_temperature;BME280_humidity;BME280_pressure;Samples;Min_cycle;Max_cycle;Signal;HPM_P1;HPM_P2
2023/01/15 00:01:39;;;;;;;14.15;1.85;;;6.30;99.90;;;;;;5080114;28;20043;-58
2023/01/15 00:04:06;;;;;;;12.20;2.00;;;6.30;99.90;;;;;;5082383;28;20132;-57
2023/01/15 00:06:36;;;;;;;10.68;2.17;;;6.30;99.90;;;;;;5079439;28;20086;-60
2023/01/15 00:09:03;;;;;;;11.30;1.70;;;6.30;99.90;;;;;;5082202;28;20044;-58
2023/01/15 00:11:28;;;;;;;10.90;3.03;;;6.40;99.90;;;;;;5081092;28;20454;-59
2023/01/15 00:13:55;;;;;;;9.02;1.67;;;6.40;99.90;;;;;;5080323;28;20068;-58
2023/01/15 00:16:23;;;;;;;11.57;1.90;;;6.40;99.90;;;;;;5081757;28;20127;-59
2023/01/15 00:18:57;;;;;;;10.32;1.88;;;6.40;99.90;;;;;;5079371;28;20040;-59
2023/01/15 00:21:25;;;;;;;13.73;2.97;;;6.40;99.90;;;;;;5081947;28;20037;-58
2023/01/15 00:29:21;;;;;;;14.25;1.63;;;6.40;99.90;;;;;;5081718;28;20417;-58
2023/01/15 00:31:57;;;;;;;13.05;1.98;;;6.30;99.90;;;;;;5078934;28;20052;-57
2023/01/15 00:34:22;;;;;;;13.18;2.10;;;6.50;99.90;;;;;;5081429;28;20040;-57
2023/01/15 00:36:48;;;;;;;13.60;1.90;;;6.50;99.90;;;;;;5079589;28;20452;-58
2023/01/15 00:39:14;;;;;;;15.60;2.33;;;6.40;99.90;;;;;;5080530;28;20068;-58
2023/01/15 00:41:40;;;;;;;10.00;1.73;;;6.50;99.90;;;;;;5063248;28;20040;-57
2023/01/15 00:44:05;;;;;;;12.32;1.80;;;6.40;99.90;;;;;;5078880;28;20040;-58
2023/01/15 00:46:31;;;;;;;11.30;1.95;;;6.40;99.90;;;;;;5080726;28;20036;-58
2023/01/15 00:48:57;;;;;;;15.88;2.22;;;6.40;99.90;;;;;;5078607;28;20136;-56
2023/01/15 00:51:23;;;;;;;9.80;2.53;;;6.40;99.90;;;;;;5081076;28;20040;-58
2023/01/15 00:53:48;;;;;;;10.40;1.75;;;6.40;99.90;;;;;;5086566;28;20032;-58
2023/01/15 00:56:14;;;;;;;13.82;2.38;;;6.40;99.90;;;;;;5090393;28;20938;-58
2023/01/15 00:58:40;;;;;;;13.55;1.95;;;6.50;99.90;;;;;;5097103;28;20070;-58
2023/01/15 01:01:06;;;;;;;16.45;3.33;;;6.50;99.90;;;;;;5099434;28;20061;-58
2023/01/15 01:03:31;;;;;;;12.63;2.30;;;6.40;99.90;;;;;;5101457;28;20389;-58
2023/01/15 01:06:01;;;;;;;14.00;2.28;;;6.40;99.90;;;;;;5098479;28;20048;-58
2023/01/15 01:08:27;;;;;;;10.32;1.73;;;6.30;99.90;;;;;;5100967;28;20034;-58
2023/01/15 01:11:06;;;;;;;10.23;1.88;;;6.40;99.90;;;;;;5098693;28;20050;-58
2023/01/15 01:13:33;;;;;;;10.27;1.70;;;6.40;99.90;;;;;;5100136;28;20385;-57
2023/01/15 01:15:59;;;;;;;11.27;1.83;;;6.40;99.90;;;;;;5101069;28;20048;-58
2023/01/15 01:18:24;;;;;;;10.38;1.95;;;6.40;99.90;;;;;;5098729;28;20048;-58
2023/01/15 01:20:51;;;;;;;14.07;2.42;;;6.30;99.90;;;;;;5100926;28;20046;-57
2023/01/15 01:23:17;;;;;;;17.35;2.05;;;6.30;99.90;;;;;;5098103;28;20043;-58
2023/01/15 01:25:42;;;;;;;13.30;1.85;;;6.20;99.90;;;;;;5100723;28;20099;-58
2023/01/15 01:28:08;;;;;;;12.75;2.17;;;6.30;99.90;;;;;;5098682;28;20077;-58
2023/01/15 01:30:34;;;;;;;13.60;2.00;;;6.20;99.90;;;;;;5100167;28;20089;-58
2023/01/15 01:32:59;;;;;;;14.13;1.70;;;6.40;99.90;;;;;;5100491;28;20040;-58
2023/01/15 01:35:25;;;;;;;11.35;1.73;;;6.30;99.90;;;;;;5098549;28;20408;-58
2023/01/15 01:37:51;;;;;;;11.20;3.25;;;6.40;99.90;;;;;;5101125;28;20495;-58
2023/01/15 01:40:18;;;;;;;12.63;1.80;;;6.30;99.90;;;;;;5097916;28;20504;-58
2023/01/15 01:42:44;;;;;;;12.65;1.85;;;6.30;99.90;;;;;;5100739;28;20490;-58
2023/01/15 01:45:34;;;;;;;14.73;2.30;;;6.30;99.90;;;;;;5080028;28;20068;-57
2023/01/15 01:48:04;;;;;;;14.57;2.17;;;6.40;99.90;;;;;;5098885;28;20048;-59
2023/01/15 01:50:32;;;;;;;16.45;2.03;;;6.30;99.90;;;;;;5100962;28;20048;-59
2023/01/15 01:53:26;;;;;;;15.95;2.45;;;6.20;99.90;;;;;;5097432;28;20052;-58
2023/01/15 01:55:52;;;;;;;19.38;2.55;;;6.40;99.90;;;;;;5077012;28;20049;-58
2023/01/15 01:58:20;;;;;;;13.80;2.50;;;6.30;99.90;;;;;;5077197;28;20153;-59
2023/01/15 02:00:49;;;;;;;20.38;3.30;;;6.30;99.90;;;;;;5079089;28;20427;-58
2023/01/15 02:03:17;;;;;;;10.00;1.80;;;6.30;99.90;;;;;;5080156;28;20059;-58
2023/01/15 02:05:51;;;;;;;16.45;2.00;;;6.30;99.90;;;;;;5076995;28;20075;-58
2023/01/15 02:08:17;;;;;;;14.23;2.63;;;6.30;99.90;;;;;;5080062;28;20055;-59
2023/01/15 02:10:51;;;;;;;13.23;1.80;;;6.40;99.90;;;;;;5077324;28;20439;-58
2023/01/15 02:13:34;;;;;;;18.73;2.67;;;6.20;99.90;;;;;;5079492;28;20052;-59
2023/01/15 02:16:09;;;;;;;10.07;2.25;;;6.30;99.90;;;;;;5062465;28;20049;-58
2023/01/15 02:18:59;;;;;;;17.63;2.30;;;6.30;99.90;;;;;;5077154;28;20052;-59
2023/01/15 02:21:45;;;;;;;13.82;2.25;;;6.30;99.90;;;;;;5079433;28;20080;-58
2023/01/15 02:24:43;;;;;;;12.38;2.15;;;6.20;99.90;;;;;;5078398;28;20104;-59
2023/01/15 02:27:15;;;;;;;12.80;2.17;;;6.20;99.90;;;;;;5058694;28;20053;-59
2023/01/15 02:29:44;;;;;;;9.70;2.10;;;6.30;99.90;;;;;;5079699;28;20061;-58
2023/01/15 02:32:19;;;;;;;14.63;2.08;;;6.30;99.90;;;;;;5077254;28;20614;-59
2023/01/15 02:34:52;;;;;;;12.23;2.25;;;6.20;99.90;;;;;;5079615;28;20040;-58
2023/01/15 02:37:24;;;;;;;11.77;2.33;;;6.20;99.90;;;;;;5079611;28;20508;-58
2023/01/15 02:39:51;;;;;;;10.82;2.08;;;6.30;99.90;;;;;;5077302;28;20075;-57
2023/01/15 02:42:19;;;;;;;14.43;2.85;;;6.30;99.90;;;;;;5079512;28;20047;-58
2023/01/15 02:44:49;;;;;;;16.83;2.25;;;6.30;99.90;;;;;;5076997;28;20041;-59
2023/01/15 02:47:21;;;;;;;15.52;2.30;;;6.30;99.90;;;;;;5061727;28;20040;-59
2023/01/15 02:49:47;;;;;;;13.73;2.33;;;6.40;99.90;;;;;;5078382;28;20056;-58
2023/01/15 02:52:21;;;;;;;17.42;2.28;;;6.30;99.90;;;;;;5078120;28;20075;-58
2023/01/15 02:54:53;;;;;;;12.38;1.92;;;6.20;99.90;;;;;;5090788;28;20047;-58
2023/01/15 02:57:22;;;;;;;14.60;2.13;;;6.20;99.90;;;;;;5096867;28;20036;-58
2023/01/15 02:59:49;;;;;;;9.13;2.10;;;6.30;99.90;;;;;;5099996;28;20071;-59
2023/01/15 03:02:21;;;;;;;15.15;2.53;;;6.30;99.90;;;;;;5097514;28;20068;-59
2023/01/15 03:05:04;;;;;;;13.38;2.63;;;6.20;99.90;;;;;;5099544;28;20051;-58
2023/01/15 03:07:41;;;;;;;10.60;2.95;;;6.20;99.90;;;;;;5099477;28;20049;-58
2023/01/15 03:10:08;;;;;;;14.32;2.38;;;6.30;99.90;;;;;;5081372;28;20063;-59
2023/01/15 03:13:01;;;;;;;14.63;2.30;;;6.30;99.90;;;;;;5103545;28;20598;-59
2023/01/15 03:18:20;;;;;;;12.02;2.03;;;5.90;99.90;;;;;;5100622;28;20059;-58
2023/01/15 03:20:51;;;;;;;11.50;2.00;;;6.00;99.90;;;;;;5085312;28;20044;-59
2023/01/15 03:23:21;;;;;;;14.18;3.03;;;6.00;99.90;;;;;;5100244;28;20073;-62
2023/01/15 03:25:48;;;;;;;14.38;2.40;;;5.90;99.90;;;;;;5103288;28;20063;-59
2023/01/15 03:28:20;;;;;;;22.55;2.70;;;5.80;99.90;;;;;;5101009;28;20080;-57
2023/01/15 03:30:45;;;;;;;12.23;2.00;;;6.00;99.90;;;;;;5102155;28;20557;-58
2023/01/15 03:33:11;;;;;;;11.43;2.55;;;6.10;99.90;;;;;;5103218;28;20040;-59
2023/01/15 03:36:06;;;;;;;16.27;2.17;;;6.00;99.90;;;;;;5100283;28;20117;-59
2023/01/15 03:38:35;;;;;;;12.23;2.10;;;6.00;99.90;;;;;;5103116;28;20054;-58
2023/01/15 03:41:23;;;;;;;11.00;2.08;;;6.10;99.90;;;;;;5100784;28;20089;-57
2023/01/15 03:44:16;;;;;;;14.75;1.73;;;6.10;99.90;;;;;;5100827;28;20046;-58
2023/01/15 03:46:47;;;;;;;13.45;2.35;;;6.00;99.90;;;;;;5092445;28;20082;-59
2023/01/15 03:49:16;;;;;;;10.43;2.47;;;5.90;99.90;;;;;;5100033;28;20032;-59
2023/01/15 03:52:06;;;;;;;10.52;2.08;;;5.90;99.90;;;;;;5103146;28;20108;-59
2023/01/15 03:54:56;;;;;;;8.15;1.95;;;5.90;99.90;;;;;;5101959;28;20055;-59
2023/01/15 03:57:50;;;;;;;12.45;2.13;;;5.90;99.90;;;;;;5099877;28;20040;-59
2023/01/15 04:00:25;;;;;;;12.07;1.95;;;5.90;99.90;;;;;;5065332;28;20125;-58
2023/01/15 04:02:53;;;;;;;15.48;1.90;;;5.90;99.90;;;;;;5101422;28;20071;-59
2023/01/15 04:05:20;;;;;;;10.55;2.78;;;5.90;99.90;;;;;;5100415;28;20040;-58
2023/01/15 04:07:47;;;;;;;16.05;2.92;;;5.90;99.90;;;;;;5067454;28;20044;-58
2023/01/15 04:10:13;;;;;;;15.65;3.00;;;5.80;99.90;;;;;;5099490;28;20040;-58
2023/01/15 04:12:38;;;;;;;9.60;2.03;;;6.00;99.90;;;;;;5083968;28;20044;-58
2023/01/15 04:15:05;;;;;;;11.38;2.15;;;5.80;99.90;;;;;;5099476;28;20048;-59
2023/01/15 04:17:30;;;;;;;10.80;2.60;;;5.90;99.90;;;;;;5102239;28;20048;-58
2023/01/15 04:19:56;;;;;;;8.77;1.90;;;6.00;99.90;;;;;;5100271;28;20044;-57
2023/01/15 04:22:21;;;;;;;8.70;1.73;;;6.00;99.90;;;;;;5100082;28;20048;-58
2023/01/15 04:24:47;;;;;;;10.43;1.88;;;5.90;99.90;;;;;;5102256;28;20055;-58
2023/01/15 04:27:13;;;;;;;11.25;2.30;;;5.90;99.90;;;;;;5099569;28;20055;-58
2023/01/15 04:29:38;;;;;;;9.90;2.08;;;5.90;99.90;;;;;;5101717;28;20103;-59
2023/01/15 04:32:04;;;;;;;12.02;2.22;;;5.80;99.90;;;;;;5099221;28;20040;-59
2023/01/15 04:34:30;;;;;;;10.18;2.20;;;5.80;99.90;;;;;;5094467;28;20037;-59
2023/01/15 04:36:56;;;;;;;13.13;2.15;;;5.80;99.90;;;;;;5091041;28;20488;-58
2023/01/15 04:39:22;;;;;;;13.27;2.80;;;5.90;99.90;;;;;;5075357;28;20396;-58
2023/01/15 04:44:34;;;;;;;11.80;1.77;;;5.80;99.90;;;;;;5099310;28;20121;-59
2023/01/15 04:47:00;;;;;;;13.23;2.10;;;5.90;99.90;;;;;;5101341;28;20048;-58
2023/01/15 04:49:26;;;;;;;16.15;2.67;;;5.70;99.90;;;;;;5098945;28;20135;-59
2023/01/15 04:51:52;;;;;;;12.13;2.42;;;5.80;99.90;;;;;;5101257;28;20032;-58
2023/01/15 04:54:18;;;;;;;15.50;2.28;;;5.80;99.90;;;;;;5093283;28;20040;-58
2023/01/15 04:56:46;;;;;;;14.48;2.65;;;5.70;99.90;;;;;;5079225;28;20040;-59
2023/01/15 04:59:13;;;;;;;18.27;2.70;;;5.80;99.90;;;;;;5081397;28;20040;-59
2023/01/15 05:01:39;;;;;;;12.93;2.08;;;5.70;99.90;;;;;;5078249;28;20333;-59
2023/01/15 05:04:05;;;;;;;13.70;1.98;;;5.70;99.90;;;;;;5080778;28;20084;-59
2023/01/15 05:06:31;;;;;;;14.77;1.90;;;5.70;99.90;;;;;;5078604;28;20113;-56
2023/01/15 05:08:58;;;;;;;14.20;2.22;;;5.70;99.90;;;;;;5080315;28;20040;-59
2023/01/15 05:11:24;;;;;;;15.60;2.78;;;5.60;99.90;;;;;;5079963;28;20733;-58
2023/01/15 05:13:50;;;;;;;10.60;1.88;;;5.70;99.90;;;;;;5078966;28;20700;-59
2023/01/15 05:16:18;;;;;;;10.52;2.00;;;5.60;99.90;;;;;;5080745;28;20044;-59
2023/01/15 05:18:45;;;;;;;11.65;2.33;;;5.70;99.90;;;;;;5077943;28;20054;-59
2023/01/15 05:21:25;;;;;;;10.23;3.08;;;5.60;99.90;;;;;;5080616;28;20040;-59
2023/01/15 05:23:52;;;;;;;13.32;2.05;;;5.50;99.90;;;;;;5078645;28;20538;-58
2023/01/15 05:26:19;;;;;;;16.52;2.67;;;5.50;99.90;;;;;;5061702;28;20114;-59
2023/01/15 05:28:45;;;;;;;13.30;2.03;;;5.60;99.90;;;;;;5080446;28;20137;-58
2023/01/15 05:31:13;;;;;;;10.65;2.35;;;5.60;99.90;;;;;;5077569;28;20513;-58
2023/01/15 05:33:39;;;;;;;13.45;1.95;;;5.50;99.90;;;;;;5080676;28;20051;-58
2023/01/15 05:36:08;;;;;;;10.38;2.40;;;5.50;99.90;;;;;;5077933;28;20052;-56
2023/01/15 05:38:34;;;;;;;10.23;1.58;;;5.50;99.90;;;;;;5080368;28;20556;-59
2023/01/15 05:43:55;;;;;;;12.43;2.20;;;5.60;99.90;;;;;;5077523;28;20063;-58
2023/01/15 05:46:22;;;;;;;13.38;1.98;;;5.40;99.90;;;;;;5080472;28;20447;-58
2023/01/15 05:48:48;;;;;;;10.65;2.72;;;5.40;99.90;;;;;;5059879;28;20063;-58
2023/01/15 05:51:14;;;;;;;11.93;2.10;;;5.40;99.90;;;;;;5080150;28;20044;-58
2023/01/15 05:53:40;;;;;;;19.17;3.85;;;5.40;99.90;;;;;;5079515;28;20064;-59
2023/01/15 05:56:06;;;;;;;17.20;2.35;;;5.30;99.90;;;;;;5081732;28;20044;-59
2023/01/15 05:58:32;;;;;;;14.85;3.47;;;5.40;99.90;;;;;;5099755;28;20047;-59
2023/01/15 06:00:58;;;;;;;16.58;1.90;;;5.30;99.90;;;;;;5098088;28;20055;-58
2023/01/15 06:03:25;;;;;;;13.68;2.00;;;5.40;99.90;;;;;;5100686;28;20051;-58
2023/01/15 06:05:55;;;;;;;12.68;2.13;;;5.40;99.90;;;;;;5079251;28;20101;-59
2023/01/15 06:08:22;;;;;;;16.13;2.40;;;5.30;99.90;;;;;;5100178;28;20087;-58
2023/01/15 06:10:48;;;;;;;8.73;2.38;;;5.30;99.90;;;;;;5092394;28;20032;-59
2023/01/15 06:13:14;;;;;;;14.95;2.40;;;5.30;99.90;;;;;;5090057;28;20058;-59
2023/01/15 06:15:40;;;;;;;12.70;2.05;;;5.30;99.90;;;;;;5084717;28;20053;-57
2023/01/15 06:18:06;;;;;;;9.77;1.83;;;5.20;99.90;;;;;;5078198;28;20119;-59
2023/01/15 06:20:35;;;;;;;14.50;2.22;;;5.30;99.90;;;;;;5080311;28;20048;-58
2023/01/15 06:23:00;;;;;;;14.43;2.55;;;5.20;99.90;;;;;;5076896;28;20048;-58
2023/01/15 06:25:26;;;;;;;10.63;2.33;;;5.20;99.90;;;;;;5097699;28;20267;-59
2023/01/15 06:27:52;;;;;;;10.48;1.90;;;5.30;99.90;;;;;;5097330;28;20033;-58
2023/01/15 06:30:17;;;;;;;14.05;3.15;;;5.20;99.90;;;;;;5099762;28;20060;-59
2023/01/15 06:32:43;;;;;;;11.80;1.98;;;5.20;99.90;;;;;;5099082;28;20099;-58
2023/01/15 06:35:09;;;;;;;10.48;1.65;;;5.20;99.90;;;;;;5098220;28;20048;-58
2023/01/15 06:37:35;;;;;;;23.77;4.75;;;5.20;99.90;;;;;;5100478;28;20060;-58
2023/01/15 06:40:00;;;;;;;14.27;2.97;;;5.40;99.90;;;;;;5097241;28;20368;-59
2023/01/15 06:47:56;;;;;;;12.57;2.00;;;5.30;99.90;;;;;;5102041;28;20085;-58
2023/01/15 06:50:23;;;;;;;16.10;2.38;;;5.20;99.90;;;;;;5104238;28;20048;-58
2023/01/15 06:52:49;;;;;;;13.75;2.67;;;5.30;99.90;;;;;;5100835;28;20051;-58
2023/01/15 06:55:14;;;;;;;10.68;1.63;;;5.40;99.90;;;;;;5092141;28;20044;-59
2023/01/15 06:57:40;;;;;;;10.82;1.90;;;5.30;99.90;;;;;;5101212;28;20100;-58
2023/01/15 07:00:08;;;;;;;6.50;1.30;;;5.30;99.90;;;;;;5104084;28;20063;-58
2023/01/15 07:02:33;;;;;;;13.00;1.70;;;5.30;99.90;;;;;;5084070;28;20044;-58
2023/01/15 07:04:59;;;;;;;8.68;1.55;;;5.30;99.90;;;;;;5102079;28;20081;-58
2023/01/15 07:07:27;;;;;;;9.20;1.73;;;5.20;99.90;;;;;;5103670;28;20036;-58
2023/01/15 07:09:53;;;;;;;10.43;1.80;;;5.30;99.90;;;;;;5100539;28;20170;-58
2023/01/15 07:12:19;;;;;;;10.50;2.03;;;5.30;99.90;;;;;;5096971;28;20036;-58
2023/01/15 07:14:46;;;;;;;10.40;1.83;;;5.40;99.90;;;;;;5089077;28;20070;-58
2023/01/15 07:17:12;;;;;;;9.75;1.67;;;5.30;99.90;;;;;;5100563;28;20066;-59
2023/01/15 07:19:38;;;;;;;12.23;1.88;;;5.30;99.90;;;;;;5101897;28;20500;-58
2023/01/15 07:22:04;;;;;;;9.07;2.10;;;5.30;99.90;;;;;;5102361;28;20063;-58
2023/01/15 07:24:30;;;;;;;14.77;1.80;;;5.30;99.90;;;;;;5103225;28;20071;-58
2023/01/15 07:26:56;;;;;;;16.48;1.92;;;5.40;99.90;;;;;;5100198;28;20036;-58
2023/01/15 07:29:22;;;;;;;11.57;1.63;;;5.40;99.90;;;;;;5099912;28;20531;-58
2023/01/15 07:31:51;;;;;;;8.52;1.10;;;5.40;99.90;;;;;;5096215;28;20083;-58
2023/01/15 07:34:17;;;;;;;9.05;1.48;;;5.40;99.90;;;;;;5064450;28;20043;-58
2023/01/15 07:36:42;;;;;;;8.10;1.50;;;5.40;99.90;;;;;;5097523;28;20058;-58
2023/01/15 07:39:10;;;;;;;12.38;2.85;;;5.50;99.90;;;;;;5080062;28;20504;-59
2023/01/15 07:49:58;;;;;;;;;;;5.40;99.90;;;;;;5092019;28;20074;-58
2023/01/15 07:52:24;;;;;;;8.85;1.70;;;5.30;99.90;;;;;;5084721;28;19920;-58
2023/01/15 07:54:50;;;;;;;13.20;1.75;;;5.40;99.90;;;;;;5094719;28;20058;-58
2023/01/15 07:57:20;;;;;;;11.98;1.77;;;5.30;99.90;;;;;;5096037;28;20820;-58
2023/01/15 07:59:47;;;;;;;8.82;1.40;;;5.30;99.90;;;;;;5099026;28;20044;-59
2023/01/15 08:02:13;;;;;;;11.73;1.80;;;5.30;99.90;;;;;;5096189;28;20318;-58
2023/01/15 08:04:39;;;;;;;6.47;1.50;;;5.30;99.90;;;;;;5098296;28;20052;-58
2023/01/15 08:07:05;;;;;;;9.05;1.75;;;5.30;99.90;;;;;;5097988;28;20051;-59
2023/01/15 08:09:31;;;;;;;10.88;2.58;;;5.30;99.90;;;;;;5096578;28;20040;-59
2023/01/15 08:17:32;;;;;;;7.55;1.60;;;5.30;99.90;;;;;;5094604;28;20049;-58
2023/01/15 08:19:57;;;;;;;6.40;1.30;;;5.20;99.90;;;;;;5087759;28;20048;-58
2023/01/15 08:22:23;;;;;;;12.50;1.92;;;5.30;99.90;;;;;;5082785;28;20180;-58
2023/01/15 08:24:49;;;;;;;11.85;2.03;;;5.30;99.90;;;;;;5094193;28;20035;-58
2023/01/15 08:27:14;;;;;;;8.93;1.95;;;5.40;99.90;;;;;;5095521;28;20089;-58
2023/01/15 08:29:40;;;;;;;10.68;2.28;;;5.30;99.90;;;;;;5097972;28;20052;-58
2023/01/15 08:32:06;;;;;;;11.38;1.40;;;5.20;99.90;;;;;;5095506;28;20043;-58
2023/01/15 08:34:31;;;;;;;13.40;3.05;;;5.30;99.90;;;;;;5097718;28;20424;-58
2023/01/15 08:36:58;;;;;;;7.28;2.47;;;5.30;99.90;;;;;;5097219;28;20119;-58
2023/01/15 08:39:27;;;;;;;10.88;1.80;;;5.40;99.90;;;;;;5086773;28;20056;-58
2023/01/15 08:41:57;;;;;;;9.75;1.60;;;5.40;99.90;;;;;;5077916;28;20072;-58
2023/01/15 08:44:23;;;;;;;10.93;1.65;;;5.60;99.90;;;;;;5056666;28;20060;-58
2023/01/15 08:46:50;;;;;;;15.05;1.50;;;5.50;99.90;;;;;;5077909;28;20373;-58
2023/01/15 08:49:17;;;;;;;11.40;2.15;;;5.60;99.90;;;;;;5075084;28;20068;-58
2023/01/15 08:51:45;;;;;;;7.57;1.65;;;5.50;99.90;;;;;;5077453;28;20131;-58
2023/01/15 08:54:12;;;;;;;12.13;1.58;;;5.50;99.90;;;;;;5082487;28;20044;-58
2023/01/15 08:56:37;;;;;;;8.40;1.60;;;5.40;99.90;;;;;;5077258;28;20036;-58
2023/01/15 08:59:09;;;;;;;7.57;1.40;;;5.40;99.90;;;;;;5097568;28;20076;-58
2023/01/15 09:01:35;;;;;;;9.88;1.50;;;5.40;99.90;;;;;;5095043;28;20048;-59
2023/01/15 09:04:01;;;;;;;8.98;2.28;;;5.30;99.90;;;;;;5097813;28;20055;-59
2023/01/15 09:06:27;;;;;;;8.15;2.08;;;5.20;99.90;;;;;;5076060;28;20135;-60
2023/01/15 09:08:53;;;;;;;9.70;1.98;;;5.20;99.90;;;;;;5097231;28;20079;-59
2023/01/15 09:11:18;;;;;;;9.30;1.83;;;5.10;99.90;;;;;;5096885;28;20647;-59
2023/01/15 09:13:46;;;;;;;9.93;1.60;;;5.20;99.90;;;;;;5060601;28;20434;-59
2023/01/15 09:16:12;;;;;;;8.38;1.50;;;5.00;99.90;;;;;;5089479;28;20058;-58
2023/01/15 09:18:40;;;;;;;8.18;1.70;;;5.10;99.90;;;;;;5084676;28;20036;-58
2023/01/15 09:21:05;;;;;;;9.05;1.33;;;5.10;99.90;;;;;;5086012;28;20649;-58
2023/01/15 09:23:32;;;;;;;14.70;3.53;;;5.10;99.90;;;;;;5084319;28;20137;-58
2023/01/15 09:26:04;;;;;;;9.15;1.55;;;5.20;99.90;;;;;;5087235;28;20100;-58
2023/01/15 09:28:33;;;;;;;9.00;1.70;;;5.20;99.90;;;;;;5085567;28;20067;-57
2023/01/15 09:30:59;;;;;;;12.43;2.15;;;5.30;99.90;;;;;;5083630;28;20136;-58
2023/01/15 09:33:25;;;;;;;11.15;1.50;;;5.40;99.90;;;;;;5070615;28;20109;-58
2023/01/15 09:35:51;;;;;;;13.07;3.00;;;5.50;99.90;;;;;;5094157;28;20474;-58
2023/01/15 09:38:19;;;;;;;9.02;2.00;;;5.40;99.90;;;;;;5096964;28;20044;-58
2023/01/15 09:41:06;;;;;;;7.55;1.60;;;5.40;99.90;;;;;;5094095;28;20070;-58
2023/01/15 09:44:10;;;;;;;13.43;1.85;;;5.30;99.90;;;;;;5095249;28;20047;-59
2023/01/15 09:46:49;;;;;;;13.40;2.70;;;5.50;99.90;;;;;;5045056;28;20062;-58
2023/01/15 09:49:40;;;;;;;8.45;2.13;;;5.70;99.90;;;;;;5093969;28;20040;-58
2023/01/15 09:52:16;;;;;;;13.15;2.60;;;5.70;99.90;;;;;;5095245;28;20039;-58
2023/01/15 09:55:00;;;;;;;15.93;1.80;;;5.90;99.90;;;;;;5087395;28;20077;-58
2023/01/15 09:57:27;;;;;;;12.77;2.08;;;5.90;99.90;;;;;;5094075;28;20085;-58
2023/01/15 10:00:00;;;;;;;10.75;1.75;;;5.90;99.90;;;;;;5096819;28;20040;-58
2023/01/15 10:02:39;;;;;;;9.93;2.00;;;5.90;99.90;;;;;;5095348;28;20126;-58
2023/01/15 10:05:43;;;;;;;11.15;1.90;;;5.90;99.90;;;;;;5094317;28;20052;-58
2023/01/15 10:08:14;;;;;;;10.15;1.95;;;6.00;99.90;;;;;;5087282;28;20573;-57
2023/01/15 10:10:50;;;;;;;11.90;1.75;;;5.90;99.90;;;;;;5082949;28;20040;-58
2023/01/15 10:13:25;;;;;;;13.30;1.77;;;6.30;99.90;;;;;;5086133;28;20052;-58
2023/01/15 10:15:51;;;;;;;9.35;1.50;;;6.10;99.90;;;;;;5084805;28;20125;-58
2023/01/15 10:18:22;;;;;;;11.85;2.53;;;6.20;99.90;;;;;;5083680;28;20040;-57
2023/01/15 10:21:14;;;;;;;5.82;1.40;;;6.30;99.90;;;;;;5099890;28;20048;-59
2023/01/15 10:23:43;;;;;;;10.33;1.87;;;6.30;99.90;;;;;;5093450;28;20047;-58
2023/01/15 10:26:30;;;;;;;8.55;2.15;;;6.20;99.90;;;;;;5099705;28;20400;-57
2023/01/15 10:29:18;;;;;;;8.60;1.83;;;6.30;99.90;;;;;;5099948;28;20052;-58
2023/01/15 10:31:53;;;;;;;7.38;1.48;;;6.10;99.90;;;;;;5097828;28;20051;-57
2023/01/15 10:35:15;;;;;;;10.80;1.98;;;6.20;99.90;;;;;;5100232;28;20043;-58
2023/01/15 10:37:57;;;;;;;13.48;1.80;;;6.10;99.90;;;;;;5100565;28;20582;-58
2023/01/15 10:40:26;;;;;;;14.27;1.90;;;6.20;99.90;;;;;;5097312;28;20063;-58
2023/01/15 10:43:17;;;;;;;13.70;2.10;;;6.10;99.90;;;;;;5100238;28;20048;-58
2023/01/15 10:46:00;;;;;;;15.20;3.38;;;6.30;99.90;;;;;;5100352;28;20036;-58
2023/01/15 10:48:43;;;;;;;11.15;3.00;;;6.50;99.90;;;;;;5097412;28;20087;-58
2023/01/15 10:51:22;;;;;;;11.98;2.25;;;6.60;99.90;;;;;;5100147;28;20051;-58
2023/01/15 10:54:04;;;;;;;11.30;1.80;;;6.70;99.90;;;;;;5094785;28;20868;-58
2023/01/15 10:56:44;;;;;;;14.65;2.10;;;6.80;99.90;;;;;;5077997;28;20572;-58
2023/01/15 10:59:23;;;;;;;12.57;1.83;;;6.80;99.90;;;;;;5080066;28;20112;-58
2023/01/15 11:01:55;;;;;;;9.90;2.03;;;7.00;99.90;;;;;;5076873;28;20052;-58
2023/01/15 11:04:22;;;;;;;11.85;2.30;;;7.00;99.90;;;;;;5079577;28;20063;-58
2023/01/15 11:06:48;;;;;;;12.88;2.20;;;7.10;99.90;;;;;;5078506;28;20052;-58
2023/01/15 11:09:29;;;;;;;10.93;1.95;;;7.30;99.90;;;;;;5078632;28;20066;-58
2023/01/15 11:20:51;;;;;;;11.18;2.50;;;7.00;99.90;;;;;;5079537;28;20114;-58
2023/01/15 11:23:20;;;;;;;13.80;2.05;;;7.10;99.90;;;;;;5076237;28;20368;-58
2023/01/15 11:25:58;;;;;;;10.65;2.65;;;6.90;99.90;;;;;;5064329;28;20048;-58
2023/01/15 11:28:31;;;;;;;11.90;2.28;;;7.00;99.90;;;;;;5082748;28;20100;-58
2023/01/15 11:30:58;;;;;;;8.15;1.73;;;7.00;99.90;;;;;;5087242;28;20052;-58
2023/01/15 11:33:26;;;;;;;9.35;1.88;;;7.00;99.90;;;;;;5089312;28;20032;-58
2023/01/15 11:35:57;;;;;;;14.55;3.35;;;6.90;99.90;;;;;;5087211;28;20036;-58
2023/01/15 11:38:28;;;;;;;16.65;2.38;;;6.90;99.90;;;;;;5070645;28;20044;-58
2023/01/15 11:40:58;;;;;;;14.55;2.20;;;6.90;99.90;;;;;;5085272;28;20044;-58
2023/01/15 11:52:01;;;;;;;10.20;2.60;;;6.50;99.90;;;;;;5077561;28;20051;-58
2023/01/15 11:54:31;;;;;;;16.17;3.03;;;6.30;99.90;;;;;;5087351;28;20036;-59
2023/01/15 11:56:57;;;;;;;17.20;2.97;;;6.10;99.90;;;;;;5096494;28;20070;-58
2023/01/15 11:59:24;;;;;;;15.23;2.90;;;6.10;99.90;;;;;;5099525;28;20040;-59
2023/01/15 12:01:58;;;;;;;17.05;3.50;;;5.80;99.90;;;;;;5096300;28;20127;-59
2023/01/15 12:04:36;;;;;;;11.70;2.45;;;5.80;99.90;;;;;;5098345;28;20036;-60
2023/01/15 12:07:03;;;;;;;15.45;3.20;;;5.50;99.90;;;;;;5098539;28;20062;-60
2023/01/15 12:09:35;;;;;;;15.80;3.47;;;5.50;99.90;;;;;;5077872;28;20046;-62
2023/01/15 12:12:26;;;;;;;17.35;2.40;;;5.20;99.90;;;;;;5087968;28;20083;-64
2023/01/15 12:15:10;;;;;;;13.88;2.38;;;4.50;99.90;;;;;;5060663;28;20051;-65
2023/01/15 12:18:02;;;;;;;11.02;1.80;;;5.20;99.90;;;;;;5059062;28;20082;-66
2023/01/15 12:20:50;;;;;;;12.38;1.95;;;5.10;99.90;;;;;;5060892;28;20078;-65
2023/01/15 12:23:57;;;;;;;8.32;1.40;;;4.70;99.90;;;;;;5057896;28;20455;-64
2023/01/15 12:26:28;;;;;;;5.40;1.33;;;4.00;99.90;;;;;;5076506;28;20380;-62
2023/01/15 12:29:20;;;;;;;4.00;0.70;;;5.10;99.90;;;;;;5084808;28;20040;-62
2023/01/15 12:32:01;;;;;;;1.95;0.70;;;4.00;99.90;;;;;;5086285;28;20036;-61
2023/01/15 12:34:38;;;;;;;5.45;0.93;;;5.20;99.90;;;;;;5077618;28;20040;-61
2023/01/15 12:37:08;;;;;;;5.00;1.23;;;4.30;99.90;;;;;;5080697;28;20095;-60
2023/01/15 12:39:45;;;;;;;5.10;1.30;;;4.20;99.90;;;;;;5080120;28;20050;-60
2023/01/15 12:45:06;;;;;;;8.20;1.40;;;5.80;99.90;;;;;;5094541;28;20538;-60
2023/01/15 12:47:38;;;;;;;8.77;1.70;;;4.50;99.90;;;;;;5069923;28;20104;-59
2023/01/15 12:50:28;;;;;;;7.88;1.30;;;4.50;99.90;;;;;;5087722;28;20077;-59
2023/01/15 12:53:03;;;;;;;9.50;1.50;;;4.90;99.90;;;;;;5085185;28;20077;-59
2023/01/15 12:55:38;;;;;;;9.57;1.45;;;5.00;99.90;;;;;;5088533;28;20128;-59
2023/01/15 12:58:15;;;;;;;10.93;2.53;;;4.50;99.90;;;;;;5085298;28;20071;-59
2023/01/15 13:00:42;;;;;;;7.32;1.30;;;5.20;99.90;;;;;;5081278;28;20036;-59
2023/01/15 13:03:25;;;;;;;8.40;1.70;;;5.20;99.90;;;;;;5077732;28;20055;-59
2023/01/15 13:05:56;;;;;;;9.02;1.50;;;5.40;99.90;;;;;;5056566;28;20040;-59
2023/01/15 13:09:03;;;;;;;9.52;1.38;;;4.60;99.90;;;;;;5077487;28;20629;-59
2023/01/15 13:11:28;;;;;;;13.05;3.25;;;4.70;99.90;;;;;;5059395;28;20105;-59
2023/01/15 13:13:57;;;;;;;16.63;1.90;;;4.90;99.90;;;;;;5082225;28;20071;-58
2023/01/15 13:16:30;;;;;;;8.73;2.03;;;5.10;99.90;;;;;;5068440;28;20046;-59
2023/01/15 13:19:51;;;;;;;7.32;1.58;;;4.90;99.90;;;;;;5083107;28;20040;-59
2023/01/15 13:22:25;;;;;;;11.35;2.42;;;5.10;99.90;;;;;;5054045;28;20086;-61
2023/01/15 13:25:22;;;;;;;5.43;1.25;;;5.10;99.90;;;;;;5067858;28;20491;-63
2023/01/15 13:28:15;;;;;;;9.75;2.00;;;5.50;99.90;;;;;;5085108;28;20052;-63
2023/01/15 13:31:16;;;;;;;12.73;1.60;;;4.40;99.90;;;;;;5084347;28;20083;-64
2023/01/15 13:33:48;;;;;;;7.90;1.40;;;5.00;99.90;;;;;;5086642;28;20040;-64
2023/01/15 13:36:22;;;;;;;7.70;1.60;;;4.40;99.90;;;;;;5082940;28;20305;-63
2023/01/15 13:38:51;;;;;;;9.60;1.38;;;5.50;99.90;;;;;;5085661;28;20044;-65
2023/01/15 13:44:20;;;;;;;3.72;0.98;;;4.90;99.90;;;;;;5059134;28;20045;-62
2023/01/15 13:47:11;;;;;;;4.45;0.80;;;4.30;99.90;;;;;;5076609;28;20453;-58
2023/01/15 13:49:40;;;;;;;2.10;0.50;;;5.00;99.90;;;;;;5075614;28;20040;-59
2023/01/15 13:52:19;;;;;;;3.72;0.68;;;4.80;99.90;;;;;;5057129;28;20518;-60
2023/01/15 13:54:45;;;;;;;4.03;0.80;;;4.90;99.90;;;;;;5087859;28;20054;-60
2023/01/15 13:57:43;;;;;;;4.20;0.93;;;4.80;99.90;;;;;;5094287;28;20117;-60
2023/01/15 14:00:44;;;;;;;1.10;0.57;;;4.00;99.90;;;;;;5040982;28;20131;-60
2023/01/15 14:03:31;;;;;;;4.60;0.80;;;5.00;99.90;;;;;;4994522;28;20466;-59
2023/01/15 14:05:59;;;;;;;3.30;0.65;;;5.00;99.90;;;;;;5069436;28;20112;-59
2023/01/15 14:08:28;;;;;;;5.90;1.02;;;4.50;99.90;;;;;;5096774;28;20168;-59
2023/01/15 14:10:54;;;;;;;4.93;1.10;;;5.10;99.90;;;;;;5095440;28;20372;-59